Time;durP1;ratioP1;P1;durP2;ratioP2;P2;SDS_P1;SDS_P2;PMS_P1;PMS_P2;Temp;Humidity;BMP_temperature;BMP_pressure;BME280_temperature;BME280_humidity;BME280_pressure;Samples;Min_cycle;Max_cycle;Signal;HPM_P1;HPM_P2
2022/04/23 00:00:24;;;;;;;7.17;3.70;;;;;;;9.91;70.82;100328.59;6001236;28;20054;-69
2022/04/23 00:03:19;;;;;;;7.63;3.20;;;;;;;9.76;71.33;100324.78;6001666;28;20058;-68
2022/04/23 00:06:15;;;;;;;5.07;2.73;;;;;;;9.67;71.20;100325.69;6005821;28;20061;-69
2022/04/23 00:09:10;;;;;;;5.53;3.47;;;;;;;9.57;71.44;100326.59;6008747;28;20054;-69
2022/04/23 00:12:06;;;;;;;5.07;3.13;;;;;;;9.45;71.75;100330.44;5995540;28;20487;-68
2022/04/23 00:15:01;;;;;;;6.45;3.60;;;;;;;9.41;71.57;100329.06;6001770;28;20455;-69
2022/04/23 00:17:56;;;;;;;5.40;3.33;;;;;;;9.23;72.27;100322.91;6001493;28;20034;-69
2022/04/23 00:20:52;;;;;;;6.20;3.20;;;;;;;9.14;71.77;100329.06;6000839;28;20039;-69
2022/04/23 00:23:48;;;;;;;4.93;2.93;;;;;;;9.12;71.96;100328.38;6001711;28;20387;-70
2022/04/23 00:26:44;;;;;;;5.53;3.13;;;;;;;9.05;72.15;100337.84;6006074;28;20126;-69
2022/04/23 00:29:39;;;;;;;6.22;3.40;;;;;;;8.95;72.22;100323.84;6005999;28;20064;-69
2022/04/23 00:32:35;;;;;;;8.25;3.28;;;;;;;8.93;72.43;100324.00;6005330;28;20135;-69
2022/04/23 00:35:31;;;;;;;4.53;2.63;;;;;;;8.77;72.63;100325.59;6006118;28;20035;-69
2022/04/23 00:38:26;;;;;;;5.35;3.15;;;;;;;8.79;73.06;100339.50;6005941;28;20049;-69
2022/04/23 00:44:38;;;;;;;5.35;3.55;;;;;;;8.65;73.25;100326.72;6005451;28;20488;-68
2022/04/23 00:47:33;;;;;;;6.63;3.42;;;;;;;8.58;73.53;100337.06;6005561;28;20084;-69
2022/04/23 00:50:28;;;;;;;4.97;3.00;;;;;;;8.52;73.44;100336.78;6004714;28;20051;-68
2022/04/23 00:53:24;;;;;;;5.47;3.20;;;;;;;8.37;74.43;100329.28;6005127;28;20089;-69
2022/04/23 00:56:20;;;;;;;5.28;2.63;;;;;;;8.33;74.71;100333.19;6005322;28;20602;-69
2022/04/23 00:59:16;;;;;;;5.68;3.30;;;;;;;8.27;74.48;100336.38;5988240;28;20069;-69
2022/04/23 01:02:12;;;;;;;5.70;3.27;;;;;;;8.22;74.57;100338.59;6004485;28;20085;-68
2022/04/23 01:05:08;;;;;;;5.60;3.17;;;;;;;8.24;74.87;100338.44;6005433;28;20026;-69
2022/04/23 01:08:04;;;;;;;7.65;4.00;;;;;;;8.16;74.46;100330.38;6005248;28;20050;-69
2022/04/23 01:10:59;;;;;;;5.40;3.22;;;;;;;8.18;74.86;100339.84;6004073;28;20027;-68
2022/04/23 01:13:56;;;;;;;6.37;3.63;;;;;;;8.11;75.02;100332.63;6007492;28;20069;-69
2022/04/23 01:16:51;;;;;;;5.22;3.45;;;;;;;8.08;75.10;100344.28;6004607;28;20042;-69
2022/04/23 01:19:47;;;;;;;5.67;3.67;;;;;;;8.02;75.19;100347.47;6006066;28;20455;-68
2022/04/23 01:22:44;;;;;;;4.97;3.63;;;;;;;7.99;75.06;100333.75;6011395;28;20340;-68
2022/04/23 01:25:39;;;;;;;6.45;3.80;;;;;;;7.98;75.01;100342.63;6004951;28;20030;-69
2022/04/23 01:28:35;;;;;;;6.00;3.43;;;;;;;7.97;74.91;100333.03;6005161;28;20478;-69
2022/04/23 01:31:32;;;;;;;6.30;3.83;;;;;;;7.91;74.67;100331.78;6003973;28;20379;-69
2022/04/23 01:34:28;;;;;;;5.60;3.47;;;;;;;7.86;74.49;100335.81;6007016;28;20038;-68
2022/04/23 01:37:23;;;;;;;7.03;4.13;;;;;;;7.79;75.06;100330.25;6003946;28;20058;-69
2022/04/23 01:40:19;;;;;;;6.53;3.80;;;;;;;7.76;74.69;100341.09;6003765;28;20030;-69
2022/04/23 01:43:14;;;;;;;6.53;4.20;;;;;;;7.79;74.63;100343.44;6004903;28;20050;-69
2022/04/23 01:46:09;;;;;;;7.83;4.47;;;;;;;7.67;75.08;100331.34;6003939;28;20050;-68
2022/04/23 01:49:05;;;;;;;9.50;4.10;;;;;;;7.59;75.55;100344.38;6004689;28;20019;-68
2022/04/23 01:52:00;;;;;;;8.60;4.03;;;;;;;7.54;75.59;100343.97;5986293;28;20282;-69
2022/04/23 01:54:55;;;;;;;9.33;4.93;;;;;;;7.49;75.35;100348.81;6004244;28;20332;-68
2022/04/23 01:57:51;;;;;;;7.67;4.30;;;;;;;7.40;75.90;100341.69;6004686;28;20110;-68
2022/04/23 02:00:46;;;;;;;8.43;4.37;;;;;;;7.32;75.87;100339.75;6004577;28;20111;-68
2022/04/23 02:03:41;;;;;;;7.77;4.23;;;;;;;7.19;76.24;100337.34;6009212;28;20038;-69
2022/04/23 02:06:37;;;;;;;7.65;4.43;;;;;;;7.10;76.95;100340.78;5987273;28;20047;-69
2022/04/23 02:09:33;;;;;;;9.37;4.87;;;;;;;7.02;77.01;100340.59;6003744;28;20042;-68
2022/04/23 02:12:28;;;;;;;9.20;4.82;;;;;;;7.02;76.29;100337.97;6005747;28;20038;-68
2022/04/23 02:15:23;;;;;;;8.83;5.00;;;;;;;7.15;75.75;100337.72;5998821;28;20050;-69
2022/04/23 02:18:21;;;;;;;7.93;4.83;;;;;;;7.13;76.52;100340.50;6003802;28;20375;-69
2022/04/23 02:21:16;;;;;;;7.82;5.18;;;;;;;7.07;76.44;100340.19;6003325;28;20623;-68
2022/04/23 02:24:11;;;;;;;10.43;4.88;;;;;;;7.11;76.07;100345.09;5999349;28;20066;-69
2022/04/23 02:27:07;;;;;;;9.73;6.00;;;;;;;7.04;76.49;100346.56;6003644;28;20089;-68
2022/04/23 02:30:03;;;;;;;12.25;5.75;;;;;;;7.00;76.63;100333.81;6000596;28;20026;-69
2022/04/23 02:32:58;;;;;;;10.57;5.72;;;;;;;6.93;76.71;100338.75;6002285;28;20039;-68
2022/04/23 02:35:55;;;;;;;10.45;5.70;;;;;;;6.97;76.16;100339.34;6003467;28;20070;-68
2022/04/23 02:38:51;;;;;;;10.77;6.30;;;;;;;6.92;76.45;100347.66;6013019;28;20038;-68
2022/04/23 02:41:46;;;;;;;12.48;6.80;;;;;;;6.86;76.67;100342.91;6004892;28;20050;-68
2022/04/23 02:44:41;;;;;;;11.87;6.47;;;;;;;6.95;76.75;100346.53;6004380;28;20101;-69
2022/04/23 02:47:48;;;;;;;9.80;6.10;;;;;;;6.93;76.89;100354.56;6003000;28;20031;-69
2022/04/23 02:51:18;;;;;;;12.50;6.70;;;;;;;6.93;76.76;100353.75;6002145;28;20435;-69
2022/04/23 02:54:13;;;;;;;12.55;6.32;;;;;;;6.92;76.40;100352.06;6004918;28;20042;-69
2022/04/23 02:57:09;;;;;;;13.37;6.90;;;;;;;6.90;77.06;100361.91;6008311;28;20049;-69
2022/04/23 03:00:06;;;;;;;11.35;6.45;;;;;;;6.85;77.20;100361.50;6002454;28;20270;-69
2022/04/23 03:03:01;;;;;;;12.40;6.45;;;;;;;6.80;77.63;100353.94;6002685;28;20427;-68
2022/04/23 03:05:56;;;;;;;10.98;5.95;;;;;;;6.70;77.20;100353.06;6009357;28;20034;-68
2022/04/23 03:08:52;;;;;;;10.63;5.60;;;;;;;6.75;77.66;100353.50;6006068;28;20030;-69
2022/04/23 03:11:48;;;;;;;14.20;5.35;;;;;;;6.64;76.90;100356.22;6008435;28;20038;-68
2022/04/23 03:14:45;;;;;;;13.40;6.72;;;;;;;6.63;77.38;100366.91;6006047;28;20042;-68
2022/04/23 03:17:40;;;;;;;10.68;6.38;;;;;;;6.57;78.08;100369.09;6002639;28;20394;-68
2022/04/23 03:20:37;;;;;;;11.03;5.87;;;;;;;6.47;78.61;100360.28;6002269;28;20034;-69
2022/04/23 03:23:32;;;;;;;12.43;6.40;;;;;;;6.39;78.79;100367.97;6002102;28;20101;-68
2022/04/23 03:26:27;;;;;;;11.93;5.93;;;;;;;6.32;79.11;100363.34;6002054;28;20482;-69
2022/04/23 03:29:23;;;;;;;12.87;6.70;;;;;;;6.30;79.02;100367.94;6002601;28;20089;-69
2022/04/23 03:32:18;;;;;;;11.37;6.00;;;;;;;6.30;79.28;100367.94;6001319;28;20034;-69
2022/04/23 03:35:14;;;;;;;11.03;5.50;;;;;;;6.24;80.17;100365.78;6002437;28;20046;-68
2022/04/23 03:38:09;;;;;;;17.10;7.35;;;;;;;6.26;80.09;100369.13;6002379;28;20393;-68
2022/04/23 03:41:04;;;;;;;14.00;6.40;;;;;;;6.19;79.36;100368.81;6001398;28;20482;-68
2022/04/23 03:44:00;;;;;;;13.23;7.00;;;;;;;6.19;80.35;100367.97;6002250;28;20044;-69
2022/04/23 03:46:59;;;;;;;10.88;6.30;;;;;;;6.14;79.98;100371.00;6001962;28;20807;-69
2022/04/23 03:49:54;;;;;;;13.00;6.18;;;;;;;6.08;80.58;100365.38;6002182;28;20053;-68
2022/04/23 03:52:49;;;;;;;14.00;6.37;;;;;;;6.12;80.42;100364.16;6001149;28;20035;-68
2022/04/23 03:55:45;;;;;;;11.97;6.07;;;;;;;6.14;80.59;100364.88;6002290;28;20027;-69
2022/04/23 03:58:41;;;;;;;12.05;6.25;;;;;;;6.10;80.18;100371.34;6002227;28;20368;-69
2022/04/23 04:01:37;;;;;;;14.02;6.57;;;;;;;6.04;80.91;100382.38;6005530;28;20051;-69
2022/04/23 04:04:32;;;;;;;14.32;7.68;;;;;;;6.01;81.18;100374.75;6007063;28;20094;-69
2022/04/23 04:07:28;;;;;;;11.60;6.22;;;;;;;6.02;81.63;100376.41;6019852;28;20065;-68
2022/04/23 04:10:23;;;;;;;15.00;7.37;;;;;;;5.97;81.13;100367.13;6005968;28;20043;-69
2022/04/23 04:13:18;;;;;;;12.48;6.38;;;;;;;5.96;81.88;100373.31;6008880;28;20371;-69
2022/04/23 04:16:14;;;;;;;13.90;6.57;;;;;;;5.95;81.23;100376.91;6006986;28;20038;-69
2022/04/23 04:19:09;;;;;;;13.52;6.30;;;;;;;5.91;82.03;100378.13;6006431;28;20035;-68
2022/04/23 04:22:06;;;;;;;11.80;6.07;;;;;;;5.90;81.84;100379.06;6005480;28;20038;-68
2022/04/23 04:25:02;;;;;;;10.80;6.03;;;;;;;5.93;81.83;100381.47;6006186;28;20039;-69
2022/04/23 04:28:01;;;;;;;12.82;6.85;;;;;;;5.97;81.98;100382.06;6006637;28;20030;-69
2022/04/23 04:34:10;;;;;;;10.85;6.38;;;;;;;5.98;82.35;100376.66;6005900;28;20478;-68
2022/04/23 04:37:10;;;;;;;13.97;6.73;;;;;;;5.98;81.69;100387.19;6006416;28;20031;-68
2022/04/23 04:40:06;;;;;;;11.20;5.85;;;;;;;6.01;82.10;100382.66;6004594;28;20026;-68
2022/04/23 04:43:01;;;;;;;13.15;6.60;;;;;;;6.01;82.35;100390.56;6005247;28;20034;-69
2022/04/23 04:45:57;;;;;;;14.87;7.63;;;;;;;6.02;81.68;100393.03;6005805;28;20049;-69
2022/04/23 04:48:52;;;;;;;14.77;7.38;;;;;;;6.06;82.33;100388.38;6005871;28;20031;-68
2022/04/23 04:51:49;;;;;;;12.50;6.63;;;;;;;6.26;81.50;100390.19;6003557;28;20498;-68
2022/04/23 04:54:44;;;;;;;13.90;6.75;;;;;;;6.47;80.15;100383.97;6005493;28;20321;-69
2022/04/23 04:57:39;;;;;;;12.33;6.00;;;;;;;6.49;80.89;100386.50;6005369;28;20034;-68
2022/04/23 05:00:35;;;;;;;13.93;7.87;;;;;;;6.49;79.67;100389.97;6004800;28;20042;-68
2022/04/23 05:03:30;;;;;;;11.55;5.95;;;;;;;6.54;79.57;100386.94;6004371;28;20043;-68
2022/04/23 05:06:26;;;;;;;15.47;8.00;;;;;;;6.48;80.51;100395.34;6005043;28;20041;-69
2022/04/23 05:09:21;;;;;;;14.70;7.30;;;;;;;6.42;80.37;100398.50;6005358;28;20031;-69
2022/04/23 05:12:16;;;;;;;13.27;6.68;;;;;;;6.53;80.44;100401.91;6004379;28;20065;-69
2022/04/23 05:15:12;;;;;;;14.52;7.00;;;;;;;6.47;80.39;100404.19;6009211;28;20045;-69
2022/04/23 05:18:07;;;;;;;12.83;7.43;;;;;;;6.57;80.49;100405.97;6005684;28;20385;-69
2022/04/23 05:21:03;;;;;;;13.97;7.30;;;;;;;6.68;80.27;100410.34;6001800;28;20046;-68
2022/04/23 05:23:58;;;;;;;15.73;7.28;;;;;;;7.03;78.44;100397.66;6005213;28;20097;-68
2022/04/23 05:26:53;;;;;;;12.32;6.18;;;;;;;7.42;77.30;100411.81;6004703;28;20046;-69
2022/04/23 05:29:49;;;;;;;12.63;8.00;;;;;;;7.65;76.05;100417.72;6003872;28;20422;-68
2022/04/23 05:32:44;;;;;;;16.27;7.70;;;;;;;7.57;74.99;100422.84;6004334;28;20034;-67
2022/04/23 05:35:39;;;;;;;11.43;6.13;;;;;;;7.77;75.16;100424.59;6004633;28;20058;-68
2022/04/23 05:38:36;;;;;;;13.37;7.90;;;;;;;7.59;75.71;100423.53;6004183;28;20038;-67
2022/04/23 05:41:31;;;;;;;12.00;6.32;;;;;;;7.98;74.95;100427.13;6003321;28;20478;-68
2022/04/23 05:44:26;;;;;;;14.27;6.67;;;;;;;8.40;72.59;100417.19;6003995;28;20053;-68
2022/04/23 05:47:21;;;;;;;13.80;7.63;;;;;;;8.55;71.80;100426.34;6003966;28;20034;-68
2022/04/23 05:50:18;;;;;;;12.07;6.37;;;;;;;8.62;71.67;100417.69;6001735;28;20437;-68
2022/04/23 05:53:13;;;;;;;12.90;7.53;;;;;;;8.30;72.23;100419.81;6004335;28;20116;-67
2022/04/23 05:56:08;;;;;;;11.83;6.93;;;;;;;8.21;72.95;100420.59;6004265;28;20421;-68
2022/04/23 05:59:04;;;;;;;13.03;7.00;;;;;;;8.59;71.71;100422.47;6004490;28;20274;-68
2022/04/23 06:02:00;;;;;;;11.40;6.43;;;;;;;9.09;71.56;100420.41;6003628;28;20057;-68
2022/04/23 06:04:55;;;;;;;12.52;7.35;;;;;;;8.76;70.54;100427.00;6006925;28;20031;-67
2022/04/23 06:07:51;;;;;;;13.13;8.07;;;;;;;8.65;70.63;100424.50;6015286;28;20031;-67
2022/04/23 06:10:46;;;;;;;12.60;6.80;;;;;;;9.16;71.07;100427.59;6003904;28;20035;-68
2022/04/23 06:13:41;;;;;;;13.73;6.97;;;;;;;9.22;69.95;100432.31;6011631;28;20042;-67
2022/04/23 06:16:37;;;;;;;12.63;7.40;;;;;;;9.28;69.01;100434.41;6004445;28;20093;-68
2022/04/23 06:19:32;;;;;;;12.30;6.85;;;;;;;9.49;67.47;100434.16;6003912;28;20034;-68
2022/04/23 06:22:28;;;;;;;14.83;6.53;;;;;;;9.61;67.70;100437.47;6003445;28;20031;-69
2022/04/23 06:25:23;;;;;;;13.37;7.47;;;;;;;9.65;68.02;100436.22;6004195;28;20039;-67
2022/04/23 06:28:18;;;;;;;13.43;7.00;;;;;;;9.91;66.74;100430.06;6003827;28;20035;-67
2022/04/23 06:31:13;;;;;;;13.13;8.27;;;;;;;9.77;65.49;100442.97;6003082;28;20038;-67
2022/04/23 06:34:09;;;;;;;12.17;7.43;;;;;;;9.96;65.58;100432.25;6003770;28;20502;-68
2022/04/23 06:37:05;;;;;;;16.20;8.80;;;;;;;9.77;65.55;100429.72;6004077;28;20261;-69
2022/04/23 06:40:00;;;;;;;14.48;6.65;;;;;;;9.91;64.90;100437.19;6003118;28;20030;-68
2022/04/23 06:42:55;;;;;;;14.80;8.33;;;;;;;10.12;64.45;100435.94;6003396;28;20198;-67
2022/04/23 06:45:51;;;;;;;12.83;7.37;;;;;;;9.97;64.97;100432.09;6003791;28;20042;-68
2022/04/23 06:48:46;;;;;;;10.10;5.53;;;;;;;10.37;63.77;100431.72;6003418;28;20035;-68
2022/04/23 06:51:41;;;;;;;13.98;7.65;;;;;;;10.37;63.77;100436.19;6002842;28;20089;-70
2022/04/23 06:54:37;;;;;;;12.05;6.18;;;;;;;10.40;63.63;100430.59;6003668;28;20057;-70
2022/04/23 06:57:32;;;;;;;13.33;6.03;;;;;;;10.47;62.60;100436.94;6003290;28;20046;-68
2022/04/23 07:00:27;;;;;;;12.77;6.73;;;;;;;10.39;62.74;100434.22;6002360;28;20046;-68
2022/04/23 07:03:23;;;;;;;13.33;7.40;;;;;;;10.51;63.15;100444.44;6003110;28;20392;-69
2022/04/23 07:06:18;;;;;;;13.73;6.77;;;;;;;10.77;63.13;100455.09;6016225;28;20265;-70
2022/04/23 07:09:13;;;;;;;12.20;7.27;;;;;;;10.93;62.51;100441.13;6003351;28;20431;-70
2022/04/23 07:12:09;;;;;;;12.40;6.70;;;;;;;10.83;60.80;100443.03;6009876;28;20076;-69
2022/04/23 07:15:05;;;;;;;14.30;7.22;;;;;;;10.92;61.29;100448.28;6007813;28;20027;-69
2022/04/23 07:18:00;;;;;;;11.38;6.88;;;;;;;10.64;60.23;100428.16;6002877;28;20111;-68
2022/04/23 07:20:55;;;;;;;11.53;7.17;;;;;;;10.91;60.15;100428.03;6002323;28;20039;-68
2022/04/23 07:24:03;;;;;;;12.23;7.40;;;;;;;11.13;59.77;100431.97;6003034;28;20037;-68
2022/04/23 07:26:59;;;;;;;11.63;6.63;;;;;;;11.24;59.89;100437.03;6003116;28;20045;-68
2022/04/23 07:29:54;;;;;;;12.85;6.70;;;;;;;11.47;58.05;100427.50;6002428;28;20039;-68
2022/04/23 07:32:52;;;;;;;12.23;7.10;;;;;;;11.30;58.01;100433.75;6001514;28;20061;-68
2022/04/23 07:39:01;;;;;;;11.95;6.55;;;;;;;11.38;57.89;100428.47;6002579;28;20121;-67
2022/04/23 07:41:56;;;;;;;13.23;7.73;;;;;;;11.63;57.53;100430.25;6001709;28;20042;-68
2022/04/23 07:44:51;;;;;;;13.83;6.60;;;;;;;11.85;57.14;100426.19;6002605;28;20031;-68
2022/04/23 07:47:47;;;;;;;13.13;7.60;;;;;;;11.77;57.82;100423.53;6002618;28;20039;-68
2022/04/23 07:50:42;;;;;;;13.73;6.80;;;;;;;12.16;56.41;100414.00;6001562;28;20270;-69
2022/04/23 07:53:38;;;;;;;10.85;6.30;;;;;;;12.13;55.38;100416.16;6002419;28;20557;-68
2022/04/23 07:56:35;;;;;;;13.02;7.10;;;;;;;11.94;55.47;100425.25;6002529;28;20438;-68
2022/04/23 07:59:30;;;;;;;16.20;7.03;;;;;;;11.83;55.00;100413.09;6002497;28;20035;-68
2022/04/23 08:02:25;;;;;;;11.37;7.10;;;;;;;11.96;55.13;100411.81;6001968;28;20050;-70
2022/04/23 08:05:21;;;;;;;12.60;7.00;;;;;;;11.98;54.93;100417.78;6008112;28;20274;-69
2022/04/23 08:08:20;;;;;;;11.38;5.90;;;;;;;12.10;54.12;100419.13;6009557;28;20037;-68
2022/04/23 08:11:16;;;;;;;12.07;6.28;;;;;;;12.31;53.22;100406.22;6002339;28;20030;-68
2022/04/23 08:14:11;;;;;;;11.23;5.50;;;;;;;12.45;52.21;100408.22;6014237;28;20073;-68
2022/04/23 08:17:06;;;;;;;13.63;6.50;;;;;;;12.47;50.03;100401.72;6002474;28;20031;-68
2022/04/23 08:20:03;;;;;;;12.63;5.53;;;;;;;12.18;49.97;100409.34;6001121;28;20043;-68
2022/04/23 08:22:58;;;;;;;12.10;5.85;;;;;;;12.12;49.77;100406.53;6002061;28;20294;-69
2022/04/23 08:25:56;;;;;;;8.13;4.97;;;;;;;12.21;49.35;100410.84;6002264;28;20045;-69
2022/04/23 08:32:05;;;;;;;9.77;5.10;;;;;;;12.43;48.81;100400.41;6001492;28;20039;-70
2022/04/23 08:35:01;;;;;;;10.05;5.63;;;;;;;12.34;48.85;100401.38;6001921;28;20166;-70
2022/04/23 08:37:56;;;;;;;8.82;4.68;;;;;;;12.53;48.33;100392.25;6002248;28;20034;-69
2022/04/23 08:40:51;;;;;;;8.13;4.60;;;;;;;12.44;46.30;100402.09;6001208;28;20038;-69
2022/04/23 08:43:47;;;;;;;7.55;4.55;;;;;;;12.53;47.52;100397.56;6001877;28;20270;-70
2022/04/23 08:46:44;;;;;;;7.75;4.47;;;;;;;12.79;47.01;100413.38;6004579;28;20030;-69
2022/04/23 08:49:40;;;;;;;7.43;4.53;;;;;;;12.67;46.09;100407.56;6005854;28;20445;-70
2022/04/23 08:52:36;;;;;;;6.90;4.32;;;;;;;12.81;46.58;100393.56;6005677;28;20031;-70
2022/04/23 08:55:32;;;;;;;6.63;3.72;;;;;;;12.94;45.88;100391.22;6006118;28;20093;-70
2022/04/23 08:58:27;;;;;;;7.07;4.63;;;;;;;12.95;44.93;100384.06;6005837;28;20073;-70
2022/04/23 09:01:23;;;;;;;8.68;3.58;;;;;;;13.37;44.84;100386.50;6005795;28;20046;-68
2022/04/23 09:04:18;;;;;;;7.80;3.75;;;;;;;13.62;44.33;100361.41;6005811;28;20050;-70
2022/04/23 09:07:28;;;;;;;6.80;3.63;;;;;;;13.52;44.56;100395.41;6019009;28;20047;-70
2022/04/23 09:10:46;;;;;;;6.88;4.40;;;;;;;13.25;43.52;100391.38;6004822;28;20050;-70
2022/04/23 09:13:41;;;;;;;7.13;3.90;;;;;;;13.68;43.81;100387.34;6013095;28;20034;-70
2022/04/23 09:26:28;;;;;;;6.65;3.53;;;;;;;13.93;42.93;100375.56;6005595;28;20494;-69
2022/04/23 09:29:24;;;;;;;7.28;4.15;;;;;;;13.68;43.40;100374.03;6004978;28;20046;-69
2022/04/23 09:32:20;;;;;;;5.55;3.35;;;;;;;13.54;43.82;100383.59;6004883;28;20490;-70
2022/04/23 09:35:16;;;;;;;7.72;4.68;;;;;;;14.10;42.97;100360.31;6005237;28;20039;-69
2022/04/23 09:38:15;;;;;;;6.40;3.90;;;;;;;13.87;43.12;100381.59;6005073;28;20031;-69
2022/04/23 09:41:16;;;;;;;7.97;4.45;;;;;;;13.68;42.99;100355.38;6001004;28;20031;-69
2022/04/23 09:44:12;;;;;;;6.80;4.18;;;;;;;14.09;43.18;100363.97;6005072;28;20054;-70
2022/04/23 09:47:07;;;;;;;8.23;3.55;;;;;;;13.95;43.30;100359.38;6005190;28;20043;-69
2022/04/23 09:50:03;;;;;;;7.35;4.22;;;;;;;13.90;43.25;100369.75;6003965;28;20043;-69
2022/04/23 09:53:08;;;;;;;6.63;4.10;;;;;;;14.23;42.71;100366.69;6005082;28;20023;-69
2022/04/23 09:56:05;;;;;;;8.85;4.15;;;;;;;13.98;44.24;100351.88;6004839;28;20039;-69
2022/04/23 09:59:00;;;;;;;7.45;4.75;;;;;;;14.34;43.61;100357.47;6004068;28;20027;-69
2022/04/23 10:01:56;;;;;;;6.93;3.93;;;;;;;14.57;42.07;100352.09;6004005;28;20050;-69
2022/04/23 10:04:54;;;;;;;7.43;3.85;;;;;;;14.60;43.15;100363.25;6006242;28;20058;-70
2022/04/23 10:07:50;;;;;;;7.68;4.10;;;;;;;14.62;42.95;100349.75;6015487;28;20035;-70
2022/04/23 10:10:52;;;;;;;7.13;3.65;;;;;;;14.83;42.03;100344.53;6003253;28;20122;-69
2022/04/23 10:13:51;;;;;;;6.00;3.50;;;;;;;14.70;42.29;100341.66;6007008;28;20101;-69
2022/04/23 10:16:47;;;;;;;7.13;3.35;;;;;;;15.09;41.79;100334.22;5987130;28;20463;-70
2022/04/23 10:19:43;;;;;;;5.30;3.40;;;;;;;15.03;41.50;100332.28;6004195;28;20030;-70
2022/04/23 10:23:05;;;;;;;6.38;3.65;;;;;;;14.83;41.65;100325.84;6003482;28;20062;-70
2022/04/23 10:26:17;;;;;;;6.63;3.78;;;;;;;14.85;41.17;100321.97;5987099;28;20031;-69
2022/04/23 10:29:15;;;;;;;6.93;3.20;;;;;;;14.89;40.90;100325.13;5986627;28;20549;-70
2022/04/23 10:32:10;;;;;;;8.23;3.67;;;;;;;15.16;41.41;100332.47;6003260;28;20093;-69
2022/04/23 10:35:25;;;;;;;7.77;4.07;;;;;;;15.26;41.43;100327.69;6004064;28;20030;-70
2022/04/23 10:38:21;;;;;;;5.60;3.70;;;;;;;15.35;40.70;100315.88;5992943;28;20051;-70
2022/04/23 10:41:17;;;;;;;7.30;4.10;;;;;;;15.24;40.64;100327.03;6003204;28;20030;-69
2022/04/23 10:44:21;;;;;;;6.53;3.83;;;;;;;15.53;40.83;100331.53;5985977;28;20802;-69
2022/04/23 10:47:30;;;;;;;9.35;4.70;;;;;;;15.65;41.58;100315.84;6003846;28;20173;-69
2022/04/23 10:50:28;;;;;;;9.30;4.22;;;;;;;15.75;42.29;100316.38;6006990;28;20044;-69
2022/04/23 10:53:27;;;;;;;8.45;4.78;;;;;;;15.69;41.69;100301.91;6003733;28;20043;-69
2022/04/23 10:56:23;;;;;;;8.55;4.45;;;;;;;15.58;42.08;100286.34;6003404;28;20039;-69
2022/04/23 10:59:40;;;;;;;7.65;4.55;;;;;;;15.67;41.23;100313.81;6003301;28;20030;-70
2022/04/23 11:02:35;;;;;;;8.93;4.72;;;;;;;15.60;41.45;100312.91;6002810;28;20090;-69
2022/04/23 11:12:16;;;;;;;7.40;4.43;;;;;;;15.96;41.52;100308.34;6005382;28;20038;-69
2022/04/23 11:15:14;;;;;;;6.22;4.20;;;;;;;15.81;40.50;100294.22;6006550;28;20042;-70
2022/04/23 11:18:09;;;;;;;7.07;4.15;;;;;;;15.84;41.06;100288.50;6003233;28;20097;-69
2022/04/23 11:21:07;;;;;;;7.38;4.05;;;;;;;16.03;41.01;100291.34;6001954;28;20046;-69
2022/04/23 11:24:02;;;;;;;6.72;4.00;;;;;;;16.01;40.76;100290.72;6002849;28;20105;-70
2022/04/23 11:26:59;;;;;;;6.78;3.55;;;;;;;16.29;40.26;100288.09;6002980;28;20030;-70
2022/04/23 11:29:55;;;;;;;6.38;3.78;;;;;;;15.78;40.10;100286.56;6002338;28;20035;-69
2022/04/23 11:32:51;;;;;;;7.22;4.30;;;;;;;15.86;40.76;100281.09;6002392;28;20066;-70
2022/04/23 11:35:46;;;;;;;6.63;3.83;;;;;;;16.08;40.39;100275.56;5985633;28;20046;-70
2022/04/23 11:38:42;;;;;;;8.50;4.20;;;;;;;16.08;40.25;100274.75;6002274;28;20031;-69
2022/04/23 11:41:43;;;;;;;7.25;3.90;;;;;;;16.27;39.48;100270.56;6002099;28;20405;-70
2022/04/23 11:44:47;;;;;;;;;;;;;;;16.54;39.31;100269.78;6002930;28;20526;-70
2022/04/23 11:47:42;;;;;;;9.30;6.07;;;;;;;16.34;41.15;100264.25;6019903;28;19914;-70
2022/04/23 11:50:37;;;;;;;6.85;3.78;;;;;;;17.04;39.36;100263.28;6001605;28;20043;-69
2022/04/23 11:53:53;;;;;;;13.53;8.73;;;;;;;16.96;38.61;100266.13;6002579;28;20034;-70
2022/04/23 11:56:49;;;;;;;5.97;3.35;;;;;;;16.60;38.58;100263.66;6002211;28;20062;-70
2022/04/23 11:59:46;;;;;;;9.50;5.50;;;;;;;16.54;39.11;100267.94;5985253;28;20112;-70
2022/04/23 12:02:45;;;;;;;6.50;4.07;;;;;;;16.64;38.56;100265.72;6002006;28;20129;-70
2022/04/23 12:05:40;;;;;;;9.73;4.45;;;;;;;16.60;39.26;100258.31;5984824;28;20050;-70
2022/04/23 12:08:35;;;;;;;6.87;5.27;;;;;;;16.78;38.84;100255.09;6001944;28;20055;-70
2022/04/23 12:11:30;;;;;;;4.40;3.00;;;;;;;17.32;38.85;100247.09;6003694;28;20039;-69
2022/04/23 12:14:26;;;;;;;8.57;3.33;;;;;;;17.20;37.79;100236.16;6012171;28;20301;-69
2022/04/23 12:17:26;;;;;;;5.17;2.80;;;;;;;17.03;37.54;100253.59;6002390;28;20034;-69
2022/04/23 12:20:23;;;;;;;5.95;3.22;;;;;;;16.86;37.72;100253.09;6001172;28;20077;-69
2022/04/23 12:23:19;;;;;;;6.53;3.20;;;;;;;16.74;37.93;100248.50;6006928;28;20565;-69
2022/04/23 12:26:18;;;;;;;5.63;3.75;;;;;;;16.47;38.83;100234.09;6006399;28;20047;-69
2022/04/23 12:42:21;;;;;;;4.30;2.50;;;;;;;16.91;38.26;100225.69;5993068;28;20039;-69
2022/04/23 12:45:20;;;;;;;6.78;3.15;;;;;;;17.21;38.32;100208.31;6006052;28;20058;-68
2022/04/23 12:48:15;;;;;;;5.88;3.17;;;;;;;17.42;37.48;100212.72;6005799;28;20082;-68
2022/04/23 12:51:10;;;;;;;6.60;3.33;;;;;;;16.99;37.68;100220.19;6005428;28;20035;-68
2022/04/23 12:54:13;;;;;;;4.53;2.97;;;;;;;17.26;37.01;100211.22;6005864;28;20282;-69
2022/04/23 12:57:15;;;;;;;5.93;2.85;;;;;;;17.23;37.20;100206.25;6002938;28;20121;-69
2022/04/23 13:00:14;;;;;;;6.55;3.30;;;;;;;17.16;37.13;100200.88;6005127;28;20463;-69
2022/04/23 13:03:23;;;;;;;5.03;3.10;;;;;;;17.62;37.41;100190.31;6006194;28;20111;-69
2022/04/23 13:09:33;;;;;;;4.32;2.83;;;;;;;17.51;37.01;100195.41;6005900;28;20454;-68
2022/04/23 13:12:28;;;;;;;5.75;2.83;;;;;;;17.58;36.44;100172.94;6015476;28;20038;-69
2022/04/23 13:15:23;;;;;;;4.23;2.90;;;;;;;17.89;35.86;100179.56;6006433;28;20042;-69
2022/04/23 13:18:19;;;;;;;5.25;2.88;;;;;;;17.26;36.06;100176.38;6005275;28;20042;-68
2022/04/23 13:21:14;;;;;;;5.03;2.70;;;;;;;17.74;36.61;100175.25;6004712;28;20041;-69
2022/04/23 13:24:10;;;;;;;4.72;3.03;;;;;;;17.88;35.52;100170.72;6005518;28;20426;-69
2022/04/23 13:27:05;;;;;;;6.18;2.80;;;;;;;17.71;35.15;100156.06;6005221;28;20077;-68
2022/04/23 13:30:01;;;;;;;4.23;2.30;;;;;;;17.40;35.00;100153.94;6003340;28;20031;-69
2022/04/23 13:32:56;;;;;;;4.68;2.50;;;;;;;17.51;34.21;100164.06;6002631;28;20042;-69
2022/04/23 13:35:51;;;;;;;4.77;2.57;;;;;;;17.52;34.87;100160.34;6004393;28;20113;-69
2022/04/23 13:38:48;;;;;;;4.37;2.80;;;;;;;17.71;35.38;100148.84;6003042;28;20093;-69
2022/04/23 13:41:43;;;;;;;5.85;3.17;;;;;;;17.80;36.42;100155.63;6001996;28;20547;-69
2022/04/23 13:44:39;;;;;;;5.68;3.33;;;;;;;17.95;36.70;100162.66;6003931;28;20062;-69
2022/04/23 13:47:34;;;;;;;4.95;3.10;;;;;;;17.75;36.59;100149.25;6004361;28;20035;-69
2022/04/23 13:50:31;;;;;;;6.45;3.25;;;;;;;17.95;36.98;100135.84;6004220;28;20039;-69
2022/04/23 13:53:26;;;;;;;4.97;2.72;;;;;;;17.81;35.50;100137.69;6004628;28;20038;-69
2022/04/23 13:56:21;;;;;;;5.93;3.20;;;;;;;17.88;35.39;100133.16;6004377;28;20529;-68
2022/04/23 13:59:16;;;;;;;6.23;2.87;;;;;;;18.00;35.32;100133.34;6004568;28;20501;-68
2022/04/23 14:11:54;;;;;;;5.43;2.85;;;;;;;18.03;35.06;100116.84;6007760;28;20034;-68
2022/04/23 14:14:49;;;;;;;6.95;3.03;;;;;;;17.99;35.57;100120.97;6003484;28;20035;-69
2022/04/23 14:17:44;;;;;;;4.90;2.57;;;;;;;18.00;34.95;100122.59;6004358;28;20471;-69
2022/04/23 14:20:39;;;;;;;4.67;2.77;;;;;;;17.63;35.21;100108.84;6003539;28;20042;-69
2022/04/23 14:23:35;;;;;;;4.60;2.50;;;;;;;17.86;35.43;100105.69;6004289;28;20034;-69
2022/04/23 14:26:31;;;;;;;5.75;2.90;;;;;;;18.20;34.45;100104.63;6003896;28;20379;-69
2022/04/23 14:29:26;;;;;;;4.90;2.50;;;;;;;18.32;34.27;100100.25;6003775;28;20069;-68
2022/04/23 14:32:21;;;;;;;3.60;2.23;;;;;;;18.11;34.19;100087.91;6003419;28;20054;-69
2022/04/23 14:35:17;;;;;;;4.40;2.50;;;;;;;18.00;34.70;100093.94;6003588;28;20277;-69
2022/04/23 14:38:12;;;;;;;4.47;2.73;;;;;;;17.80;34.79;100096.63;6003811;28;20289;-69